Tropical Cyclones
[Index]
Main Index Home Page Stock Weather Photos Extreme Storms Discussion Storm News and Storm Chasing Reports Tropical Cyclones / Hurricanes / Typhoons Weather Data and Links Wild Fires / Bushfires Weather Observation Techniques Weather Picture Catalogue Tornado Pictures and Reports Stock Video Footage and DVDs for sale
Season 2001-2002 Tropical Cyclone DINA Track Map
Season 2001-2002 Summaries (Operational Data): [AU] [SIO] [SPAC] [SH]
<<- Previous TC | 2001-2002 Season | Next TC ->>

click for intensity scale information  Lat/long Grid: Show Hide

 Date Labels: Show Hide

Operational Tropical Cyclone Data : JTWC Advisories

Name: DINA
Number: 0210

17 Jan 2002 06:00 UTC to 26 Jan 2002 12:00 UTC

    date/time    lat    long     hPa   cat  kts
2002-01-17 06    8.8    75.4    1002         25          
2002-01-17 12   10.8    73.5     995    1    35          
2002-01-17 18   11.7    71.7     990    1    45          
2002-01-18 00   12.7    70.6     988    1    45          
2002-01-18 06   13.5    69.2     975    2    60          
2002-01-18 12   14.6    68.6     965    3    65          
2002-01-18 18   15.6    67.7     965    3    70          
2002-01-19 00   15.9    67.3     950    3    80          
2002-01-19 06   16.2    66.8     950    3    80          
2002-01-19 12   16.9    66.3     955    3    80          
2002-01-19 18   17.3    65.6     955    3    80          
2002-01-20 00   17.6    65.1     930    4   100          
2002-01-20 06   18.0    64.1     910    5   115          
2002-01-20 12   18.3    63.3     910    5   115          
2002-01-20 18   18.5    62.5     910    5   115          
2002-01-21 00   18.8    61.5     910    5   115          
2002-01-21 06   18.9    60.5     920    4   105          
2002-01-21 12   19.1    59.5     930    4   100          
2002-01-21 18   19.3    58.5     925    4   100          
2002-01-22 00   19.4    57.3     935    4   100          
2002-01-22 06   19.6    56.7     930    4   100          
2002-01-22 12   20.1    55.7     930    4   100          
2002-01-22 18   20.3    54.8     930    4   100          
2002-01-23 00   20.8    54.2     930    4   100          
2002-01-23 06   21.3    53.6     940    4    90          
2002-01-23 12   21.8    52.9     950    3    85          
2002-01-23 18   22.8    52.9     955    3    80          
2002-01-24 00   24.0    52.7     960    3    75          
2002-01-24 06   24.9    52.1     966    3    75          
2002-01-24 12   26.3    52.0     972    2    60          
2002-01-24 18   27.5    52.6     975    2    60          
2002-01-25 00   28.2    52.5     985    2    50          
2002-01-25 06   29.5    53.1     985    2    50          
2002-01-25 12   30.2    54.0     985    2    50          
2002-01-25 18   30.7    55.0     985    2    50          
2002-01-26 00   31.4    56.6     985    2    50          
2002-01-26 06   32.0    58.0     988    1    45          
2002-01-26 12   33.6    59.6     990    1    45          
Winds are 10-min average.

Tropical cyclone tracks developed by Michael Bath using operational warnings and advisories and Google Maps.


[Australian Severe Weather index] [Copyright Notice] [Email Contacts] [Search This Site] [Privacy Policy]
Document: tropical_cyclone_dina.htm Updated: 28 May 2013